sensor_id;sensor_type;location;lat;lon;timestamp;temperature;humidity
43183;DHT22;28802;38.578;-0.066;2022-08-21T00:02:00;25.60;99.90
43183;DHT22;28802;38.578;-0.066;2022-08-21T00:04:26;25.50;99.90
43183;DHT22;28802;38.578;-0.066;2022-08-21T00:06:52;25.40;99.90
43183;DHT22;28802;38.578;-0.066;2022-08-21T00:09:19;25.40;99.90
43183;DHT22;28802;38.578;-0.066;2022-08-21T00:11:46;25.40;99.90
43183;DHT22;28802;38.578;-0.066;2022-08-21T00:14:13;25.40;99.90
43183;DHT22;28802;38.578;-0.066;2022-08-21T00:16:39;25.40;99.90
43183;DHT22;28802;38.578;-0.066;2022-08-21T00:19:06;25.40;99.90
43183;DHT22;28802;38.578;-0.066;2022-08-21T00:21:33;25.40;99.90
43183;DHT22;28802;38.578;-0.066;2022-08-21T00:24:00;25.40;99.90
43183;DHT22;28802;38.578;-0.066;2022-08-21T00:26:26;25.40;99.90
43183;DHT22;28802;38.578;-0.066;2022-08-21T00:28:52;25.40;99.90
43183;DHT22;28802;38.578;-0.066;2022-08-21T00:31:19;25.40;99.90
43183;DHT22;28802;38.578;-0.066;2022-08-21T00:33:45;25.40;99.90
43183;DHT22;28802;38.578;-0.066;2022-08-21T00:36:12;25.30;99.90
43183;DHT22;28802;38.578;-0.066;2022-08-21T00:38:38;25.30;99.90
43183;DHT22;28802;38.578;-0.066;2022-08-21T00:41:06;25.20;99.90
43183;DHT22;28802;38.578;-0.066;2022-08-21T00:43:35;25.20;99.90
43183;DHT22;28802;38.578;-0.066;2022-08-21T00:46:02;25.20;99.90
43183;DHT22;28802;38.578;-0.066;2022-08-21T00:48:29;25.20;99.90
43183;DHT22;28802;38.578;-0.066;2022-08-21T00:51:08;25.20;99.90
43183;DHT22;28802;38.578;-0.066;2022-08-21T00:53:40;25.20;99.90
43183;DHT22;28802;38.578;-0.066;2022-08-21T00:56:09;25.20;99.90
43183;DHT22;28802;38.578;-0.066;2022-08-21T00:58:37;25.20;99.90
43183;DHT22;28802;38.578;-0.066;2022-08-21T01:01:06;25.20;99.90
43183;DHT22;28802;38.578;-0.066;2022-08-21T01:03:33;25.10;99.90
43183;DHT22;28802;38.578;-0.066;2022-08-21T01:05:59;25.10;99.90
43183;DHT22;28802;38.578;-0.066;2022-08-21T01:08:25;25.10;99.90
43183;DHT22;28802;38.578;-0.066;2022-08-21T01:10:52;25.10;99.90
43183;DHT22;28802;38.578;-0.066;2022-08-21T01:13:24;25.00;99.90
43183;DHT22;28802;38.578;-0.066;2022-08-21T01:15:53;25.00;99.90
43183;DHT22;28802;38.578;-0.066;2022-08-21T01:18:20;24.90;99.90
43183;DHT22;28802;38.578;-0.066;2022-08-21T01:21:12;24.90;99.90
43183;DHT22;28802;38.578;-0.066;2022-08-21T01:23:41;24.90;99.90
43183;DHT22;28802;38.578;-0.066;2022-08-21T01:26:07;24.90;99.90
43183;DHT22;28802;38.578;-0.066;2022-08-21T01:28:38;24.80;99.90
43183;DHT22;28802;38.578;-0.066;2022-08-21T01:31:08;24.80;99.90
43183;DHT22;28802;38.578;-0.066;2022-08-21T01:33:35;24.80;99.90
43183;DHT22;28802;38.578;-0.066;2022-08-21T01:36:01;24.90;99.90
43183;DHT22;28802;38.578;-0.066;2022-08-21T01:38:27;24.90;99.90
43183;DHT22;28802;38.578;-0.066;2022-08-21T01:40:53;24.90;99.90
43183;DHT22;28802;38.578;-0.066;2022-08-21T01:43:19;24.90;99.90
43183;DHT22;28802;38.578;-0.066;2022-08-21T01:45:44;25.00;99.90
43183;DHT22;28802;38.578;-0.066;2022-08-21T01:48:10;25.00;99.90
43183;DHT22;28802;38.578;-0.066;2022-08-21T01:50:36;25.00;99.90
43183;DHT22;28802;38.578;-0.066;2022-08-21T01:53:02;25.00;99.90
43183;DHT22;28802;38.578;-0.066;2022-08-21T01:55:28;25.00;99.90
43183;DHT22;28802;38.578;-0.066;2022-08-21T01:57:54;24.90;99.90
43183;DHT22;28802;38.578;-0.066;2022-08-21T02:00:22;24.90;99.90
43183;DHT22;28802;38.578;-0.066;2022-08-21T02:02:51;24.90;99.90
43183;DHT22;28802;38.578;-0.066;2022-08-21T02:05:18;24.80;99.90
43183;DHT22;28802;38.578;-0.066;2022-08-21T02:07:48;24.80;99.90
43183;DHT22;28802;38.578;-0.066;2022-08-21T02:10:18;24.80;99.90
43183;DHT22;28802;38.578;-0.066;2022-08-21T02:12:45;24.80;99.90
43183;DHT22;28802;38.578;-0.066;2022-08-21T02:15:11;24.60;99.90
43183;DHT22;28802;38.578;-0.066;2022-08-21T02:20:04;24.60;99.90
43183;DHT22;28802;38.578;-0.066;2022-08-21T02:22:30;24.50;99.90
43183;DHT22;28802;38.578;-0.066;2022-08-21T02:24:56;24.50;99.90
43183;DHT22;28802;38.578;-0.066;2022-08-21T02:27:23;24.50;99.90
43183;DHT22;28802;38.578;-0.066;2022-08-21T02:29:49;24.50;99.90
43183;DHT22;28802;38.578;-0.066;2022-08-21T02:32:15;24.50;99.90
43183;DHT22;28802;38.578;-0.066;2022-08-21T02:34:41;24.50;99.90
43183;DHT22;28802;38.578;-0.066;2022-08-21T02:37:07;24.50;99.90
43183;DHT22;28802;38.578;-0.066;2022-08-21T02:39:32;24.50;99.90
43183;DHT22;28802;38.578;-0.066;2022-08-21T02:41:58;24.50;99.90
43183;DHT22;28802;38.578;-0.066;2022-08-21T02:44:25;24.60;99.90
43183;DHT22;28802;38.578;-0.066;2022-08-21T02:46:51;24.60;99.90
43183;DHT22;28802;38.578;-0.066;2022-08-21T02:49:17;24.60;99.90
43183;DHT22;28802;38.578;-0.066;2022-08-21T02:51:42;24.70;99.90
43183;DHT22;28802;38.578;-0.066;2022-08-21T02:54:08;24.70;99.90
43183;DHT22;28802;38.578;-0.066;2022-08-21T02:56:34;24.70;99.90
43183;DHT22;28802;38.578;-0.066;2022-08-21T02:59:00;24.60;99.90
43183;DHT22;28802;38.578;-0.066;2022-08-21T03:01:26;24.50;99.90
43183;DHT22;28802;38.578;-0.066;2022-08-21T03:03:52;24.60;99.90
43183;DHT22;28802;38.578;-0.066;2022-08-21T03:06:21;24.60;99.90
43183;DHT22;28802;38.578;-0.066;2022-08-21T03:08:47;24.70;99.90
43183;DHT22;28802;38.578;-0.066;2022-08-21T03:11:14;24.70;99.90
43183;DHT22;28802;38.578;-0.066;2022-08-21T03:13:40;24.60;99.90
43183;DHT22;28802;38.578;-0.066;2022-08-21T03:16:06;24.50;99.90
43183;DHT22;28802;38.578;-0.066;2022-08-21T03:18:33;24.40;99.90
43183;DHT22;28802;38.578;-0.066;2022-08-21T03:20:59;24.40;99.90
43183;DHT22;28802;38.578;-0.066;2022-08-21T03:23:25;24.40;99.90
43183;DHT22;28802;38.578;-0.066;2022-08-21T03:25:51;24.40;99.90
43183;DHT22;28802;38.578;-0.066;2022-08-21T03:28:20;24.30;99.90
43183;DHT22;28802;38.578;-0.066;2022-08-21T03:30:48;24.20;99.90
43183;DHT22;28802;38.578;-0.066;2022-08-21T03:33:15;24.10;99.90
43183;DHT22;28802;38.578;-0.066;2022-08-21T03:35:46;24.00;99.90
43183;DHT22;28802;38.578;-0.066;2022-08-21T03:38:13;24.00;99.90
43183;DHT22;28802;38.578;-0.066;2022-08-21T03:40:39;24.10;99.90
43183;DHT22;28802;38.578;-0.066;2022-08-21T03:43:04;24.20;99.90
43183;DHT22;28802;38.578;-0.066;2022-08-21T03:45:34;24.30;99.90
43183;DHT22;28802;38.578;-0.066;2022-08-21T03:48:02;24.30;99.90
43183;DHT22;28802;38.578;-0.066;2022-08-21T03:50:31;24.30;99.90
43183;DHT22;28802;38.578;-0.066;2022-08-21T03:52:58;24.40;99.90
43183;DHT22;28802;38.578;-0.066;2022-08-21T03:55:24;24.30;99.90
43183;DHT22;28802;38.578;-0.066;2022-08-21T03:57:50;24.20;99.90
43183;DHT22;28802;38.578;-0.066;2022-08-21T04:00:18;24.20;99.90
43183;DHT22;28802;38.578;-0.066;2022-08-21T04:02:45;24.30;99.90
43183;DHT22;28802;38.578;-0.066;2022-08-21T04:05:12;24.40;99.90
43183;DHT22;28802;38.578;-0.066;2022-08-21T04:07:39;24.50;99.90
43183;DHT22;28802;38.578;-0.066;2022-08-21T04:10:06;24.40;99.90
43183;DHT22;28802;38.578;-0.066;2022-08-21T04:12:32;24.30;99.90
43183;DHT22;28802;38.578;-0.066;2022-08-21T04:14:59;24.30;99.90
43183;DHT22;28802;38.578;-0.066;2022-08-21T04:17:24;24.20;99.90
43183;DHT22;28802;38.578;-0.066;2022-08-21T04:19:50;24.20;99.90
43183;DHT22;28802;38.578;-0.066;2022-08-21T04:22:16;24.10;99.90
43183;DHT22;28802;38.578;-0.066;2022-08-21T04:24:42;24.10;99.90
43183;DHT22;28802;38.578;-0.066;2022-08-21T04:27:08;24.10;99.90
43183;DHT22;28802;38.578;-0.066;2022-08-21T04:29:34;24.20;99.90
43183;DHT22;28802;38.578;-0.066;2022-08-21T04:32:00;24.10;99.90
43183;DHT22;28802;38.578;-0.066;2022-08-21T04:34:26;23.90;99.90
43183;DHT22;28802;38.578;-0.066;2022-08-21T04:36:51;23.80;99.90
43183;DHT22;28802;38.578;-0.066;2022-08-21T04:39:17;23.70;99.90
43183;DHT22;28802;38.578;-0.066;2022-08-21T04:41:43;23.60;99.90
43183;DHT22;28802;38.578;-0.066;2022-08-21T04:44:09;23.50;99.90
43183;DHT22;28802;38.578;-0.066;2022-08-21T04:46:35;23.50;99.90
43183;DHT22;28802;38.578;-0.066;2022-08-21T04:49:01;23.50;99.90
43183;DHT22;28802;38.578;-0.066;2022-08-21T04:51:33;23.50;99.90
43183;DHT22;28802;38.578;-0.066;2022-08-21T04:54:13;23.40;99.90
43183;DHT22;28802;38.578;-0.066;2022-08-21T04:56:44;23.30;99.90
43183;DHT22;28802;38.578;-0.066;2022-08-21T04:59:36;23.30;99.90
43183;DHT22;28802;38.578;-0.066;2022-08-21T05:02:03;23.30;99.90
43183;DHT22;28802;38.578;-0.066;2022-08-21T05:04:33;23.30;99.90
43183;DHT22;28802;38.578;-0.066;2022-08-21T05:07:05;23.30;99.90
43183;DHT22;28802;38.578;-0.066;2022-08-21T05:09:33;23.40;99.90
43183;DHT22;28802;38.578;-0.066;2022-08-21T05:12:01;23.40;99.90
43183;DHT22;28802;38.578;-0.066;2022-08-21T05:14:28;23.40;99.90
43183;DHT22;28802;38.578;-0.066;2022-08-21T05:16:53;23.40;99.90
43183;DHT22;28802;38.578;-0.066;2022-08-21T05:19:19;23.60;99.90
43183;DHT22;28802;38.578;-0.066;2022-08-21T05:21:46;23.70;99.90
43183;DHT22;28802;38.578;-0.066;2022-08-21T05:24:13;23.70;99.90
43183;DHT22;28802;38.578;-0.066;2022-08-21T05:26:39;23.80;99.90
43183;DHT22;28802;38.578;-0.066;2022-08-21T05:29:06;23.70;99.90
43183;DHT22;28802;38.578;-0.066;2022-08-21T05:31:32;23.70;99.90
43183;DHT22;28802;38.578;-0.066;2022-08-21T05:33:58;23.80;99.90
43183;DHT22;28802;38.578;-0.066;2022-08-21T05:36:24;23.90;99.90
43183;DHT22;28802;38.578;-0.066;2022-08-21T05:38:50;24.20;99.90
43183;DHT22;28802;38.578;-0.066;2022-08-21T05:41:16;24.50;99.90
43183;DHT22;28802;38.578;-0.066;2022-08-21T05:43:42;24.80;99.90
43183;DHT22;28802;38.578;-0.066;2022-08-21T05:46:08;25.00;99.90
43183;DHT22;28802;38.578;-0.066;2022-08-21T05:48:35;25.40;99.90
43183;DHT22;28802;38.578;-0.066;2022-08-21T05:51:12;25.70;99.90
43183;DHT22;28802;38.578;-0.066;2022-08-21T05:53:39;26.00;99.90
43183;DHT22;28802;38.578;-0.066;2022-08-21T05:56:08;26.40;99.90
43183;DHT22;28802;38.578;-0.066;2022-08-21T05:58:34;26.90;99.90
43183;DHT22;28802;38.578;-0.066;2022-08-21T06:01:01;27.40;99.90
43183;DHT22;28802;38.578;-0.066;2022-08-21T06:03:33;27.90;99.90
43183;DHT22;28802;38.578;-0.066;2022-08-21T06:06:00;28.40;99.90
43183;DHT22;28802;38.578;-0.066;2022-08-21T06:08:27;28.80;99.90
43183;DHT22;28802;38.578;-0.066;2022-08-21T06:10:55;29.30;99.90
43183;DHT22;28802;38.578;-0.066;2022-08-21T06:13:22;29.50;99.90
43183;DHT22;28802;38.578;-0.066;2022-08-21T06:15:49;29.90;99.90
43183;DHT22;28802;38.578;-0.066;2022-08-21T06:18:15;30.30;99.90
43183;DHT22;28802;38.578;-0.066;2022-08-21T06:20:41;30.80;99.90
43183;DHT22;28802;38.578;-0.066;2022-08-21T06:23:07;31.30;99.90
43183;DHT22;28802;38.578;-0.066;2022-08-21T06:25:34;31.80;99.90
43183;DHT22;28802;38.578;-0.066;2022-08-21T06:28:05;32.20;99.90
43183;DHT22;28802;38.578;-0.066;2022-08-21T06:30:32;32.70;99.90
43183;DHT22;28802;38.578;-0.066;2022-08-21T06:32:58;33.10;99.90
43183;DHT22;28802;38.578;-0.066;2022-08-21T06:35:23;33.60;99.90
43183;DHT22;28802;38.578;-0.066;2022-08-21T06:37:55;33.70;99.90
43183;DHT22;28802;38.578;-0.066;2022-08-21T06:40:21;33.90;99.90
43183;DHT22;28802;38.578;-0.066;2022-08-21T06:42:47;34.10;99.90
43183;DHT22;28802;38.578;-0.066;2022-08-21T06:45:15;34.20;99.90
43183;DHT22;28802;38.578;-0.066;2022-08-21T06:47:41;34.70;99.90
43183;DHT22;28802;38.578;-0.066;2022-08-21T06:50:07;35.10;99.90
43183;DHT22;28802;38.578;-0.066;2022-08-21T06:52:37;35.50;99.90
43183;DHT22;28802;38.578;-0.066;2022-08-21T06:55:08;35.70;99.90
43183;DHT22;28802;38.578;-0.066;2022-08-21T06:57:35;35.70;99.90
43183;DHT22;28802;38.578;-0.066;2022-08-21T07:00:05;35.10;99.90
43183;DHT22;28802;38.578;-0.066;2022-08-21T07:02:32;34.50;99.90
43183;DHT22;28802;38.578;-0.066;2022-08-21T07:04:59;34.60;99.90
43183;DHT22;28802;38.578;-0.066;2022-08-21T07:07:25;34.80;99.90
43183;DHT22;28802;38.578;-0.066;2022-08-21T07:09:50;35.00;99.90
43183;DHT22;28802;38.578;-0.066;2022-08-21T07:12:16;34.40;99.90
43183;DHT22;28802;38.578;-0.066;2022-08-21T07:14:42;34.10;99.90
43183;DHT22;28802;38.578;-0.066;2022-08-21T07:17:08;34.00;99.90
43183;DHT22;28802;38.578;-0.066;2022-08-21T07:19:34;33.70;99.90
43183;DHT22;28802;38.578;-0.066;2022-08-21T07:22:01;33.90;99.90
43183;DHT22;28802;38.578;-0.066;2022-08-21T07:24:27;34.00;99.90
43183;DHT22;28802;38.578;-0.066;2022-08-21T07:26:53;34.10;99.90
43183;DHT22;28802;38.578;-0.066;2022-08-21T07:29:19;33.80;99.90
43183;DHT22;28802;38.578;-0.066;2022-08-21T07:31:45;33.60;99.90
43183;DHT22;28802;38.578;-0.066;2022-08-21T07:34:12;33.40;99.90
43183;DHT22;28802;38.578;-0.066;2022-08-21T07:36:38;33.70;99.90
43183;DHT22;28802;38.578;-0.066;2022-08-21T07:39:03;33.90;99.90
43183;DHT22;28802;38.578;-0.066;2022-08-21T07:41:29;33.90;99.90
43183;DHT22;28802;38.578;-0.066;2022-08-21T07:43:58;33.90;99.90
43183;DHT22;28802;38.578;-0.066;2022-08-21T07:46:25;34.50;99.90
43183;DHT22;28802;38.578;-0.066;2022-08-21T07:48:51;35.00;99.90
43183;DHT22;28802;38.578;-0.066;2022-08-21T07:51:18;34.60;99.90
43183;DHT22;28802;38.578;-0.066;2022-08-21T07:53:51;34.50;99.90
43183;DHT22;28802;38.578;-0.066;2022-08-21T07:56:17;34.60;99.90
43183;DHT22;28802;38.578;-0.066;2022-08-21T07:58:44;34.60;99.90
43183;DHT22;28802;38.578;-0.066;2022-08-21T08:01:10;34.70;99.90
43183;DHT22;28802;38.578;-0.066;2022-08-21T08:03:36;35.30;99.90
43183;DHT22;28802;38.578;-0.066;2022-08-21T08:06:02;35.50;99.90
43183;DHT22;28802;38.578;-0.066;2022-08-21T08:08:30;35.60;99.90
43183;DHT22;28802;38.578;-0.066;2022-08-21T08:10:58;35.20;99.90
43183;DHT22;28802;38.578;-0.066;2022-08-21T08:13:24;35.00;99.90
43183;DHT22;28802;38.578;-0.066;2022-08-21T08:15:51;35.10;99.90
43183;DHT22;28802;38.578;-0.066;2022-08-21T08:18:17;35.30;99.90
43183;DHT22;28802;38.578;-0.066;2022-08-21T08:20:43;34.60;99.90
43183;DHT22;28802;38.578;-0.066;2022-08-21T08:23:15;34.40;99.90
43183;DHT22;28802;38.578;-0.066;2022-08-21T08:25:41;34.40;99.90
43183;DHT22;28802;38.578;-0.066;2022-08-21T08:28:07;34.20;99.90
43183;DHT22;28802;38.578;-0.066;2022-08-21T08:30:34;33.50;99.90
43183;DHT22;28802;38.578;-0.066;2022-08-21T08:33:00;34.10;99.90
43183;DHT22;28802;38.578;-0.066;2022-08-21T08:35:26;34.40;99.90
43183;DHT22;28802;38.578;-0.066;2022-08-21T08:37:54;34.80;99.90
43183;DHT22;28802;38.578;-0.066;2022-08-21T08:43:17;35.10;99.90
43183;DHT22;28802;38.578;-0.066;2022-08-21T08:45:49;34.80;99.90
43183;DHT22;28802;38.578;-0.066;2022-08-21T08:48:41;35.40;99.90
43183;DHT22;28802;38.578;-0.066;2022-08-21T08:51:16;35.60;99.90
43183;DHT22;28802;38.578;-0.066;2022-08-21T08:53:56;35.00;99.90
43183;DHT22;28802;38.578;-0.066;2022-08-21T08:56:31;35.10;99.90
43183;DHT22;28802;38.578;-0.066;2022-08-21T08:59:15;35.70;99.90
43183;DHT22;28802;38.578;-0.066;2022-08-21T09:01:43;35.50;99.90
43183;DHT22;28802;38.578;-0.066;2022-08-21T09:04:11;35.20;99.90
43183;DHT22;28802;38.578;-0.066;2022-08-21T09:15:46;35.20;99.90
43183;DHT22;28802;38.578;-0.066;2022-08-21T09:21:10;36.00;99.90
43183;DHT22;28802;38.578;-0.066;2022-08-21T09:23:43;35.80;99.90
43183;DHT22;28802;38.578;-0.066;2022-08-21T09:26:15;35.80;99.90
43183;DHT22;28802;38.578;-0.066;2022-08-21T09:28:41;35.40;99.90
43183;DHT22;28802;38.578;-0.066;2022-08-21T09:31:32;35.70;99.90
43183;DHT22;28802;38.578;-0.066;2022-08-21T09:34:11;35.90;99.90
43183;DHT22;28802;38.578;-0.066;2022-08-21T09:39:08;34.50;99.90
43183;DHT22;28802;38.578;-0.066;2022-08-21T09:41:36;34.70;99.90
43183;DHT22;28802;38.578;-0.066;2022-08-21T09:44:04;34.90;99.90
43183;DHT22;28802;38.578;-0.066;2022-08-21T09:46:30;35.10;99.90
43183;DHT22;28802;38.578;-0.066;2022-08-21T09:48:59;34.20;99.90
43183;DHT22;28802;38.578;-0.066;2022-08-21T09:51:29;34.50;99.90
43183;DHT22;28802;38.578;-0.066;2022-08-21T09:54:16;34.80;99.90
43183;DHT22;28802;38.578;-0.066;2022-08-21T09:59:40;34.10;99.90
43183;DHT22;28802;38.578;-0.066;2022-08-21T10:02:26;34.10;99.90
43183;DHT22;28802;38.578;-0.066;2022-08-21T10:04:59;34.80;99.90
43183;DHT22;28802;38.578;-0.066;2022-08-21T10:07:28;35.80;99.90
43183;DHT22;28802;38.578;-0.066;2022-08-21T10:09:59;35.90;99.90
43183;DHT22;28802;38.578;-0.066;2022-08-21T10:15:23;35.70;99.90
43183;DHT22;28802;38.578;-0.066;2022-08-21T10:18:22;35.80;99.90
43183;DHT22;28802;38.578;-0.066;2022-08-21T10:21:03;35.30;99.90
43183;DHT22;28802;38.578;-0.066;2022-08-21T10:26:17;35.50;99.90
43183;DHT22;28802;38.578;-0.066;2022-08-21T10:29:11;35.50;99.90
43183;DHT22;28802;38.578;-0.066;2022-08-21T10:34:27;35.80;99.90
43183;DHT22;28802;38.578;-0.066;2022-08-21T10:40:01;35.50;99.90
43183;DHT22;28802;38.578;-0.066;2022-08-21T10:42:38;35.20;99.90
43183;DHT22;28802;38.578;-0.066;2022-08-21T10:47:49;34.70;99.90
43183;DHT22;28802;38.578;-0.066;2022-08-21T10:50:19;35.10;99.90
43183;DHT22;28802;38.578;-0.066;2022-08-21T10:56:01;35.50;99.90
43183;DHT22;28802;38.578;-0.066;2022-08-21T10:58:30;35.70;99.90
43183;DHT22;28802;38.578;-0.066;2022-08-21T11:01:20;35.60;99.90
43183;DHT22;28802;38.578;-0.066;2022-08-21T11:07:37;36.60;99.90
43183;DHT22;28802;38.578;-0.066;2022-08-21T11:09:57;35.90;99.90
43183;DHT22;28802;38.578;-0.066;2022-08-21T11:12:31;36.10;99.90
43183;DHT22;28802;38.578;-0.066;2022-08-21T11:17:38;35.80;99.90
43183;DHT22;28802;38.578;-0.066;2022-08-21T11:22:44;35.40;99.90
43183;DHT22;28802;38.578;-0.066;2022-08-21T11:27:56;35.40;99.90
43183;DHT22;28802;38.578;-0.066;2022-08-21T11:30:27;35.50;99.90
43183;DHT22;28802;38.578;-0.066;2022-08-21T11:35:50;35.70;99.90
43183;DHT22;28802;38.578;-0.066;2022-08-21T11:43:39;34.00;99.90
43183;DHT22;28802;38.578;-0.066;2022-08-21T11:52:15;34.80;99.90
43183;DHT22;28802;38.578;-0.066;2022-08-21T11:55:00;34.50;99.90
43183;DHT22;28802;38.578;-0.066;2022-08-21T11:57:35;34.00;99.90
43183;DHT22;28802;38.578;-0.066;2022-08-21T12:00:16;33.40;99.90
43183;DHT22;28802;38.578;-0.066;2022-08-21T12:02:49;33.30;99.90
43183;DHT22;28802;38.578;-0.066;2022-08-21T12:05:32;34.10;99.90
43183;DHT22;28802;38.578;-0.066;2022-08-21T12:08:12;34.30;99.90
43183;DHT22;28802;38.578;-0.066;2022-08-21T12:10:42;34.90;99.90
43183;DHT22;28802;38.578;-0.066;2022-08-21T12:13:28;35.40;99.90
43183;DHT22;28802;38.578;-0.066;2022-08-21T12:16:06;34.90;99.90
43183;DHT22;28802;38.578;-0.066;2022-08-21T12:18:32;35.00;99.90
43183;DHT22;28802;38.578;-0.066;2022-08-21T12:21:03;34.60;99.90
43183;DHT22;28802;38.578;-0.066;2022-08-21T12:23:44;34.10;99.90
43183;DHT22;28802;38.578;-0.066;2022-08-21T12:26:21;34.50;99.90
43183;DHT22;28802;38.578;-0.066;2022-08-21T12:28:48;34.40;99.90
43183;DHT22;28802;38.578;-0.066;2022-08-21T12:31:26;34.80;99.90
43183;DHT22;28802;38.578;-0.066;2022-08-21T12:33:58;34.80;99.90
43183;DHT22;28802;38.578;-0.066;2022-08-21T12:36:57;34.80;99.90
43183;DHT22;28802;38.578;-0.066;2022-08-21T12:39:26;34.50;99.90
43183;DHT22;28802;38.578;-0.066;2022-08-21T12:42:04;34.30;99.90
43183;DHT22;28802;38.578;-0.066;2022-08-21T12:44:39;33.90;99.90
43183;DHT22;28802;38.578;-0.066;2022-08-21T12:50:05;33.40;99.90
43183;DHT22;28802;38.578;-0.066;2022-08-21T12:52:44;33.10;99.90
43183;DHT22;28802;38.578;-0.066;2022-08-21T12:55:13;33.30;99.90
43183;DHT22;28802;38.578;-0.066;2022-08-21T12:57:41;32.80;99.90
43183;DHT22;28802;38.578;-0.066;2022-08-21T13:00:11;32.70;99.90
43183;DHT22;28802;38.578;-0.066;2022-08-21T13:02:43;32.60;99.90
43183;DHT22;28802;38.578;-0.066;2022-08-21T13:05:15;32.40;99.90
43183;DHT22;28802;38.578;-0.066;2022-08-21T13:07:46;32.40;99.90
43183;DHT22;28802;38.578;-0.066;2022-08-21T13:10:29;32.80;99.90
43183;DHT22;28802;38.578;-0.066;2022-08-21T13:12:59;32.50;99.90
43183;DHT22;28802;38.578;-0.066;2022-08-21T13:15:32;32.30;99.90
43183;DHT22;28802;38.578;-0.066;2022-08-21T13:18:00;32.40;99.90
43183;DHT22;28802;38.578;-0.066;2022-08-21T13:20:33;32.30;99.90
43183;DHT22;28802;38.578;-0.066;2022-08-21T13:23:18;32.50;99.90
43183;DHT22;28802;38.578;-0.066;2022-08-21T13:25:44;32.20;99.90
43183;DHT22;28802;38.578;-0.066;2022-08-21T13:28:12;32.10;99.90
43183;DHT22;28802;38.578;-0.066;2022-08-21T13:30:49;32.00;99.90
43183;DHT22;28802;38.578;-0.066;2022-08-21T13:33:17;31.80;99.90
43183;DHT22;28802;38.578;-0.066;2022-08-21T13:35:49;31.70;99.90
43183;DHT22;28802;38.578;-0.066;2022-08-21T13:38:20;31.50;99.90
43183;DHT22;28802;38.578;-0.066;2022-08-21T13:40:57;31.50;99.90
43183;DHT22;28802;38.578;-0.066;2022-08-21T13:43:30;31.50;99.90
43183;DHT22;28802;38.578;-0.066;2022-08-21T13:45:58;31.50;99.90
43183;DHT22;28802;38.578;-0.066;2022-08-21T13:48:27;31.60;99.90
43183;DHT22;28802;38.578;-0.066;2022-08-21T13:50:54;31.70;99.90
43183;DHT22;28802;38.578;-0.066;2022-08-21T13:55:48;31.50;99.90
43183;DHT22;28802;38.578;-0.066;2022-08-21T13:58:29;31.70;99.90
43183;DHT22;28802;38.578;-0.066;2022-08-21T14:00:55;31.50;99.90
43183;DHT22;28802;38.578;-0.066;2022-08-21T14:03:34;31.50;99.90
43183;DHT22;28802;38.578;-0.066;2022-08-21T14:06:01;31.60;99.90
43183;DHT22;28802;38.578;-0.066;2022-08-21T14:08:32;31.10;99.90
43183;DHT22;28802;38.578;-0.066;2022-08-21T14:10:59;30.90;99.90
43183;DHT22;28802;38.578;-0.066;2022-08-21T14:16:22;31.20;99.90
43183;DHT22;28802;38.578;-0.066;2022-08-21T14:21:37;31.40;99.90
43183;DHT22;28802;38.578;-0.066;2022-08-21T14:26:35;31.20;99.90
43183;DHT22;28802;38.578;-0.066;2022-08-21T14:29:08;31.20;99.90
43183;DHT22;28802;38.578;-0.066;2022-08-21T14:31:34;31.20;99.90
43183;DHT22;28802;38.578;-0.066;2022-08-21T14:34:00;31.20;99.90
43183;DHT22;28802;38.578;-0.066;2022-08-21T14:36:27;31.30;99.90
43183;DHT22;28802;38.578;-0.066;2022-08-21T14:38:53;31.50;99.90
43183;DHT22;28802;38.578;-0.066;2022-08-21T14:41:23;31.30;99.90
43183;DHT22;28802;38.578;-0.066;2022-08-21T14:43:53;31.30;99.90
43183;DHT22;28802;38.578;-0.066;2022-08-21T14:46:28;31.30;99.90
43183;DHT22;28802;38.578;-0.066;2022-08-21T14:48:55;31.30;99.90
43183;DHT22;28802;38.578;-0.066;2022-08-21T14:51:21;31.20;99.90
43183;DHT22;28802;38.578;-0.066;2022-08-21T14:53:48;31.10;99.90
43183;DHT22;28802;38.578;-0.066;2022-08-21T14:56:14;31.20;99.90
43183;DHT22;28802;38.578;-0.066;2022-08-21T14:58:46;31.20;99.90
43183;DHT22;28802;38.578;-0.066;2022-08-21T15:01:15;31.20;99.90
43183;DHT22;28802;38.578;-0.066;2022-08-21T15:03:42;31.10;99.90
43183;DHT22;28802;38.578;-0.066;2022-08-21T15:06:09;31.10;99.90
43183;DHT22;28802;38.578;-0.066;2022-08-21T15:08:35;31.10;99.90
43183;DHT22;28802;38.578;-0.066;2022-08-21T15:11:02;31.30;99.90
43183;DHT22;28802;38.578;-0.066;2022-08-21T15:13:29;31.40;99.90
43183;DHT22;28802;38.578;-0.066;2022-08-21T15:15:57;31.20;99.90
43183;DHT22;28802;38.578;-0.066;2022-08-21T15:18:25;31.20;99.90
43183;DHT22;28802;38.578;-0.066;2022-08-21T15:20:51;31.30;99.90
43183;DHT22;28802;38.578;-0.066;2022-08-21T15:23:17;31.40;99.90
43183;DHT22;28802;38.578;-0.066;2022-08-21T15:25:46;31.30;99.90
43183;DHT22;28802;38.578;-0.066;2022-08-21T15:28:13;31.40;99.90
43183;DHT22;28802;38.578;-0.066;2022-08-21T15:30:40;31.10;99.90
43183;DHT22;28802;38.578;-0.066;2022-08-21T15:33:07;30.90;99.90
43183;DHT22;28802;38.578;-0.066;2022-08-21T15:35:33;30.90;99.90
43183;DHT22;28802;38.578;-0.066;2022-08-21T15:37:59;30.90;99.90
43183;DHT22;28802;38.578;-0.066;2022-08-21T15:40:26;31.00;99.90
43183;DHT22;28802;38.578;-0.066;2022-08-21T15:42:57;31.00;99.90
43183;DHT22;28802;38.578;-0.066;2022-08-21T15:45:24;31.00;99.90
43183;DHT22;28802;38.578;-0.066;2022-08-21T15:47:51;31.10;99.90
43183;DHT22;28802;38.578;-0.066;2022-08-21T15:50:17;30.80;99.90
43183;DHT22;28802;38.578;-0.066;2022-08-21T15:52:43;30.80;99.90
43183;DHT22;28802;38.578;-0.066;2022-08-21T15:55:10;31.00;99.90
43183;DHT22;28802;38.578;-0.066;2022-08-21T15:57:37;31.00;99.90
43183;DHT22;28802;38.578;-0.066;2022-08-21T16:02:41;31.00;99.90
43183;DHT22;28802;38.578;-0.066;2022-08-21T16:05:09;30.70;99.90
43183;DHT22;28802;38.578;-0.066;2022-08-21T16:07:37;30.50;99.90
43183;DHT22;28802;38.578;-0.066;2022-08-21T16:10:04;30.40;99.90
43183;DHT22;28802;38.578;-0.066;2022-08-21T16:12:35;30.40;99.90
43183;DHT22;28802;38.578;-0.066;2022-08-21T16:15:05;30.40;99.90
43183;DHT22;28802;38.578;-0.066;2022-08-21T16:17:34;30.30;99.90
43183;DHT22;28802;38.578;-0.066;2022-08-21T16:20:02;30.30;99.90
43183;DHT22;28802;38.578;-0.066;2022-08-21T16:22:29;30.40;99.90
43183;DHT22;28802;38.578;-0.066;2022-08-21T16:24:55;30.30;99.90
43183;DHT22;28802;38.578;-0.066;2022-08-21T16:27:20;30.10;99.90
43183;DHT22;28802;38.578;-0.066;2022-08-21T16:29:47;30.00;99.90
43183;DHT22;28802;38.578;-0.066;2022-08-21T16:32:13;30.00;99.90
43183;DHT22;28802;38.578;-0.066;2022-08-21T16:34:44;30.10;99.90
43183;DHT22;28802;38.578;-0.066;2022-08-21T16:37:10;30.10;99.90
43183;DHT22;28802;38.578;-0.066;2022-08-21T16:39:36;30.00;99.90
43183;DHT22;28802;38.578;-0.066;2022-08-21T16:42:02;30.00;99.90
43183;DHT22;28802;38.578;-0.066;2022-08-21T16:44:28;30.00;99.90
43183;DHT22;28802;38.578;-0.066;2022-08-21T16:46:54;29.90;99.90
43183;DHT22;28802;38.578;-0.066;2022-08-21T16:49:20;30.00;99.90